Bluffton, TX (78607)

4:05 AM CDT on May 04, 2015 (GMT -0500)
Shaw Island | | Change Station
CLOSE
Current Station
Personal Weather Station
Location: Bluffton, TX
Elevation: 1020 ft
Nearby Weather Stations

Elev 1020 ft 30.83 °N, 98.42 °W | Updated 15 days ago

Partly Cloudy
Partly Cloudy
65 °F
Feels Like 65 °F
N
6
Wind Variable Wind from SSE
Gusts 10 mph

Today
High -- | Low -- °F
--% Chance of Precip.
Yesterday
High -- | Low -- °F
Precip. -- in
6:47 AM 8:14 PM
Full, 100% visible
Pressure 30.04 in
Visibility 10.0 miles
Clouds Mostly Cloudy 2000 ft
Mostly Cloudy 3100 ft
Dew Point 64 °F
Humidity 94%
Rainfall in
Snow Depth Not available.
UV 0 out of 12
Pollen 4.60 out of 12
Air Quality Not available.
Flu Activity Sporadic
METAR KAQO 040855Z AUTO 00000KT 10SM BKN020 BKN031 18/17 A3004 RMK AO2

More Conditions Fewer Conditions

Pressure 30.04 in
Visibility 10.0 miles
Clouds Mostly Cloudy 2000 ft
Mostly Cloudy 3100 ft
Dew Point 64 °F
Humidity 94%
Rainfall in
Snow Depth Not available.
UV 0 out of 12
Pollen 4.60 out of 12
Air Quality Not available.
Flu Activity Sporadic
METAR KAQO 040855Z AUTO 00000KT 10SM BKN020 BKN031 18/17 A3004 RMK AO2

More Conditions Fewer Conditions

Nepal has a long way to go to dig out and rebuild from a devastating earthquake. We have teamed up with several charities and organizations to make contributing to the relief effort as easy as possible.
How you can help: Portlight Strategies | Red Cross

10-Day Weather Forecast

Almanac

Astronomy

May. 04, 2015 Rise Set
Actual Time
Civil Twilight
Nautical Twilight
Astronomical Twilight
Moon
Length of Visible Light
Length of Day
Tomorrow will be .
, % of the Moon is Illuminated

Today's Extremes

State Highs State Lows

Community

WunderPhotos

Upload Photos

1,818,548 photos uploaded!

WunderBlogs® & News

Nearby

Air Quality

  Air Quality AQ Index Pollutant
Not available.

Snow Depth

Station Depth Elevation

Earthquake Activity

City Distance Mag. Time & Date
Minimum magnitude displayed is 2.5.

Coastal Water Temperatures

Place Temperature

Stations

Nearby Weather Stations

Station Location Temp. Windchill Dew Point Humidity Wind Precip. Elev Updated Type